createdAt,value
2018-12-18T00:00:57.048Z,102072.47
2018-12-18T00:03:24.555Z,102073.27
2018-12-18T00:05:52.084Z,102077.35
2018-12-18T00:08:19.561Z,102074.00
2018-12-18T00:10:48.982Z,102080.43
2018-12-18T00:13:16.490Z,102083.53
2018-12-18T00:15:43.978Z,102081.61
2018-12-18T00:18:11.430Z,102082.25
2018-12-18T00:20:38.891Z,102078.16
2018-12-18T00:23:06.371Z,102084.50
2018-12-18T00:25:33.942Z,102080.42
2018-12-18T00:28:01.410Z,102076.81
2018-12-18T00:30:28.862Z,102075.27
2018-12-18T00:32:56.377Z,102072.95
2018-12-18T00:35:23.823Z,102073.27
2018-12-18T00:37:51.288Z,102071.17
2018-12-18T00:40:18.798Z,102067.09
2018-12-18T00:42:46.235Z,102066.99
2018-12-18T00:45:13.729Z,102071.74
2018-12-18T00:47:41.219Z,102071.23
2018-12-18T00:50:08.852Z,102064.28
2018-12-18T00:52:36.301Z,102064.58
2018-12-18T00:55:04.785Z,102060.98
2018-12-18T00:57:32.303Z,102065.08
2018-12-18T00:59:59.833Z,102069.43
2018-12-18T01:02:27.310Z,102071.25
2018-12-18T01:04:54.784Z,102069.18
2018-12-18T01:07:22.268Z,102066.65
2018-12-18T01:09:49.731Z,102068.68
2018-12-18T01:12:17.262Z,102070.36
2018-12-18T01:14:44.743Z,102074.06
2018-12-18T01:17:12.317Z,102073.46
2018-12-18T01:19:39.777Z,102080.48
2018-12-18T01:22:07.260Z,102084.13
2018-12-18T01:24:34.731Z,102085.91
2018-12-18T01:27:02.188Z,102095.93
2018-12-18T01:29:29.674Z,102097.06
2018-12-18T01:31:57.164Z,102088.73
2018-12-18T01:34:24.641Z,102097.21
2018-12-18T01:36:52.148Z,102101.71
2018-12-18T01:39:19.774Z,102106.73
2018-12-18T01:41:47.262Z,102091.30
2018-12-18T01:44:14.732Z,102099.53
2018-12-18T01:46:42.170Z,102103.10
2018-12-18T01:49:09.662Z,102097.57
2018-12-18T01:51:37.112Z,102102.10
2018-12-18T01:54:04.591Z,102102.35
2018-12-18T01:56:32.038Z,102108.38
2018-12-18T01:58:59.505Z,102105.31
2018-12-18T02:01:26.973Z,102104.67
2018-12-18T02:03:54.433Z,102107.73
2018-12-18T02:06:21.893Z,102099.00
2018-12-18T02:08:49.351Z,102100.03
2018-12-18T02:11:16.823Z,102100.32
2018-12-18T02:13:44.309Z,102098.25
2018-12-18T02:16:11.765Z,102102.89
2018-12-18T02:18:39.265Z,102108.77
2018-12-18T02:21:06.729Z,102100.96
2018-12-18T02:23:34.213Z,102099.67
2018-12-18T02:26:01.763Z,102103.13
2018-12-18T02:28:29.247Z,102101.59
2018-12-18T02:30:56.713Z,102096.47
2018-12-18T02:33:24.177Z,102097.35
2018-12-18T02:35:51.727Z,102099.53
2018-12-18T02:38:19.213Z,102112.27
2018-12-18T02:40:46.670Z,102102.10
2018-12-18T02:43:14.197Z,102094.39
2018-12-18T02:45:41.650Z,102082.72
2018-12-18T02:48:09.185Z,102084.90
2018-12-18T02:50:36.689Z,102083.36
2018-12-18T02:53:04.161Z,102090.93
2018-12-18T02:55:31.641Z,102088.00
2018-12-18T02:57:59.115Z,102089.27
2018-12-18T03:00:26.725Z,102092.50
2018-12-18T03:02:54.193Z,102093.92
2018-12-18T03:05:21.684Z,102092.10
2018-12-18T03:07:49.232Z,102087.60
2018-12-18T03:10:16.710Z,102094.16
2018-12-18T03:12:44.182Z,102097.77
2018-12-18T03:15:11.690Z,102106.23
2018-12-18T03:17:39.154Z,102112.66
2018-12-18T03:20:07.334Z,102108.80
2018-12-18T03:22:34.787Z,102113.69
2018-12-18T03:25:02.271Z,102102.91
2018-12-18T03:27:29.750Z,102111.11
2018-12-18T03:29:57.223Z,102108.83
2018-12-18T03:32:26.356Z,102100.59
2018-12-18T03:34:53.999Z,102108.82
2018-12-18T03:37:21.468Z,102107.27
2018-12-18T03:39:48.967Z,102099.81
2018-12-18T03:42:16.446Z,102099.83
2018-12-18T03:44:43.916Z,102096.98
2018-12-18T03:47:11.437Z,102104.70
2018-12-18T03:49:38.904Z,102105.09
2018-12-18T03:52:06.453Z,102096.84
2018-12-18T03:54:33.940Z,102101.61
2018-12-18T03:57:01.448Z,102105.21
2018-12-18T03:59:28.953Z,102099.57
2018-12-18T04:01:56.462Z,102102.50
2018-12-18T04:04:23.914Z,102106.75
2018-12-18T04:06:51.376Z,102105.22
2018-12-18T04:09:18.841Z,102111.01
2018-12-18T04:14:49.936Z,102110.36
2018-12-18T04:17:17.427Z,102109.20
2018-12-18T04:19:44.938Z,102108.67
2018-12-18T04:22:12.537Z,102100.58
2018-12-18T04:24:40.024Z,102101.85
2018-12-18T04:27:07.500Z,102096.47
2018-12-18T04:29:35.036Z,102097.51
2018-12-18T04:32:02.527Z,102093.80
2018-12-18T04:34:29.986Z,102097.77
2018-12-18T04:36:57.435Z,102098.02
2018-12-18T04:39:24.911Z,102100.34
2018-12-18T04:41:52.418Z,102106.11
2018-12-18T04:44:20.030Z,102105.86
2018-12-18T04:46:47.491Z,102105.98
2018-12-18T04:49:14.944Z,102110.09
2018-12-18T04:51:42.403Z,102111.39
2018-12-18T04:54:09.856Z,102109.85
2018-12-18T04:56:38.575Z,102108.95
2018-12-18T04:59:06.027Z,102106.49
2018-12-18T05:01:33.551Z,102097.74
2018-12-18T05:04:01.046Z,102102.62
2018-12-18T05:06:28.546Z,102103.53
2018-12-18T05:08:56.054Z,102105.84
2018-12-18T05:11:23.576Z,102102.64
2018-12-18T05:13:51.053Z,102100.06
2018-12-18T05:16:18.543Z,102100.97
2018-12-18T05:18:46.040Z,102103.12
2018-12-18T05:21:13.572Z,102100.70
2018-12-18T05:23:41.060Z,102099.54
2018-12-18T05:26:08.538Z,102102.13
2018-12-18T05:28:36.011Z,102096.59
2018-12-18T05:31:03.538Z,102099.81
2018-12-18T05:33:31.026Z,102099.16
2018-12-18T05:35:58.502Z,102110.86
2018-12-18T05:38:25.962Z,102113.17
2018-12-18T05:40:53.438Z,102113.04
2018-12-18T05:43:20.910Z,102110.60
2018-12-18T05:45:48.359Z,102116.52
2018-12-18T05:48:15.822Z,102117.79
2018-12-18T05:50:43.441Z,102122.80
2018-12-18T05:53:11.079Z,102129.22
2018-12-18T05:55:38.548Z,102128.71
2018-12-18T05:58:06.026Z,102127.32
2018-12-18T06:00:33.478Z,102131.42
2018-12-18T06:03:00.955Z,102138.37
2018-12-18T06:05:28.426Z,102136.83
2018-12-18T06:07:55.930Z,102132.97
2018-12-18T06:10:23.541Z,102132.70
2018-12-18T06:12:51.064Z,102145.30
2018-12-18T06:15:18.579Z,102146.31
2018-12-18T06:17:46.069Z,102147.37
2018-12-18T06:20:13.551Z,102149.94
2018-12-18T06:22:41.054Z,102148.14
2018-12-18T06:25:08.526Z,102157.62
2018-12-18T06:27:36.007Z,102158.12
2018-12-18T06:30:03.545Z,102153.50
2018-12-18T06:32:31.050Z,102147.70
2018-12-18T06:34:58.559Z,102154.53
2018-12-18T06:37:26.029Z,102159.64
2018-12-18T06:39:53.477Z,102162.97
2018-12-18T06:42:20.984Z,102160.83
2018-12-18T06:44:48.475Z,102158.12
2018-12-18T06:47:15.984Z,102161.56
2018-12-18T06:49:43.451Z,102151.15
2018-12-18T06:52:10.955Z,102158.12
2018-12-18T06:54:38.483Z,102158.61
2018-12-18T06:57:06.024Z,102158.07
2018-12-18T06:59:33.512Z,102158.07
2018-12-18T07:02:01.016Z,102157.81
2018-12-18T07:04:28.637Z,102159.09
2018-12-18T07:06:56.088Z,102159.20
2018-12-18T07:09:23.612Z,102166.05
2018-12-18T07:11:51.079Z,102166.30
2018-12-18T07:14:18.587Z,102163.08
2018-12-18T07:16:46.056Z,102167.08
2018-12-18T07:19:13.593Z,102169.10
2018-12-18T07:21:41.072Z,102164.09
2018-12-18T07:24:14.089Z,102167.95
2018-12-18T07:26:38.153Z,102173.99
2018-12-18T07:29:05.801Z,102178.13
2018-12-18T07:31:33.286Z,102176.84
2018-12-18T07:34:00.777Z,102178.76
2018-12-18T07:36:28.279Z,102177.09
2018-12-18T07:38:55.786Z,102185.95
2018-12-18T07:41:23.258Z,102181.06
2018-12-18T07:43:50.870Z,102177.84
2018-12-18T07:46:18.368Z,102189.95
2018-12-18T07:48:45.861Z,102185.95
2018-12-18T07:51:13.356Z,102190.44
2018-12-18T07:53:40.833Z,102196.61
2018-12-18T07:56:08.348Z,102198.77
2018-12-18T07:58:35.815Z,102209.34
2018-12-18T08:01:03.309Z,102209.80
2018-12-18T08:03:30.777Z,102213.95
2018-12-18T08:05:58.244Z,102218.19
2018-12-18T08:08:25.733Z,102213.69
2018-12-18T08:10:53.282Z,102213.47
2018-12-18T08:13:20.856Z,102218.61
2018-12-18T08:15:48.336Z,102213.83
2018-12-18T08:18:15.907Z,102216.00
2018-12-18T08:20:43.385Z,102214.84
2018-12-18T08:23:10.867Z,102218.23
2018-12-18T08:25:38.329Z,102217.77
2018-12-18T08:28:05.820Z,102208.63
2018-12-18T08:30:33.312Z,102208.67
2018-12-18T08:33:00.875Z,102213.03
2018-12-18T08:35:28.427Z,102221.79
2018-12-18T08:37:55.912Z,102222.28
2018-12-18T08:40:23.427Z,102225.10
2018-12-18T08:42:50.907Z,102211.94
2018-12-18T08:45:18.401Z,102222.27
2018-12-18T08:47:45.924Z,102220.80
2018-12-18T08:50:13.947Z,102219.61
2018-12-18T08:52:41.428Z,102222.47
2018-12-18T08:55:08.934Z,102225.31
2018-12-18T08:57:36.426Z,102224.36
2018-12-18T09:00:06.434Z,102230.20
2018-12-18T09:02:33.931Z,102231.88
2018-12-18T09:05:01.454Z,102230.70
2018-12-18T09:07:29.030Z,102223.44
2018-12-18T09:09:56.528Z,102222.65
2018-12-18T09:12:24.001Z,102221.49
2018-12-18T09:14:57.612Z,102224.99
2018-12-18T09:17:30.682Z,102230.91
2018-12-18T09:19:58.195Z,102226.34
2018-12-18T09:22:25.658Z,102227.73
2018-12-18T09:24:53.134Z,102231.34
2018-12-18T09:27:20.627Z,102228.49
2018-12-18T09:29:48.152Z,102231.53
2018-12-18T09:32:15.831Z,102225.88
2018-12-18T09:34:43.414Z,102220.45
2018-12-18T09:37:10.949Z,102223.94
2018-12-18T09:39:41.888Z,102219.13
2018-12-18T09:42:15.010Z,102221.44
2018-12-18T09:44:42.520Z,102213.17
2018-12-18T09:47:09.997Z,102213.22
2018-12-18T09:49:37.541Z,102220.78
2018-12-18T09:52:05.061Z,102213.51
2018-12-18T09:54:32.625Z,102216.14
2018-12-18T09:57:00.543Z,102212.28
2018-12-18T09:59:28.002Z,102219.76
2018-12-18T10:01:55.494Z,102213.95
2018-12-18T10:04:23.119Z,102216.14
2018-12-18T10:06:50.662Z,102216.41
2018-12-18T10:09:18.135Z,102214.00
2018-12-18T10:11:45.648Z,102214.88
2018-12-18T10:14:13.143Z,102208.30
2018-12-18T10:16:40.811Z,102208.90
2018-12-18T10:19:08.270Z,102214.80
2018-12-18T10:21:35.753Z,102209.72
2018-12-18T10:24:03.211Z,102210.42
2018-12-18T10:26:30.669Z,102217.39
2018-12-18T10:28:58.154Z,102222.87
2018-12-18T10:31:26.026Z,102205.28
2018-12-18T10:33:53.522Z,102208.15
2018-12-18T10:36:21.034Z,102216.27
2018-12-18T10:38:48.498Z,102211.31
2018-12-18T10:41:16.019Z,102201.35
2018-12-18T10:43:43.484Z,102201.35
2018-12-18T10:46:10.942Z,102198.91
2018-12-18T10:48:38.413Z,102196.13
2018-12-18T10:51:05.965Z,102199.31
2018-12-18T10:53:33.439Z,102197.02
2018-12-18T10:56:00.929Z,102193.14
2018-12-18T10:58:28.403Z,102190.03
2018-12-18T11:01:01.490Z,102192.05
2018-12-18T11:03:29.036Z,102190.34
2018-12-18T11:05:56.573Z,102189.20
2018-12-18T11:08:24.147Z,102190.77
2018-12-18T11:10:51.611Z,102184.23
2018-12-18T11:13:19.511Z,102186.22
2018-12-18T11:15:46.999Z,102182.90
2018-12-18T11:18:14.598Z,102191.11
2018-12-18T11:20:42.562Z,102185.48
2018-12-18T11:23:10.069Z,102175.34
2018-12-18T11:25:37.676Z,102177.45
2018-12-18T11:28:05.250Z,102173.44
2018-12-18T11:30:32.780Z,102175.13
2018-12-18T11:33:00.406Z,102172.36
2018-12-18T11:35:27.893Z,102159.36
2018-12-18T11:37:55.404Z,102152.56
2018-12-18T11:40:22.902Z,102151.42
2018-12-18T11:42:50.464Z,102150.20
2018-12-18T11:45:17.951Z,102139.27
2018-12-18T11:47:45.428Z,102141.61
2018-12-18T11:50:13.014Z,102147.55
2018-12-18T11:52:40.502Z,102139.69
2018-12-18T11:55:07.999Z,102134.14
2018-12-18T11:57:35.499Z,102122.58
2018-12-18T12:00:03.242Z,102121.61
2018-12-18T12:02:30.795Z,102121.92
2018-12-18T12:04:58.381Z,102126.03
2018-12-18T12:07:25.872Z,102114.94
2018-12-18T12:09:53.511Z,102120.67
2018-12-18T12:12:20.978Z,102112.00
2018-12-18T12:14:48.522Z,102117.03
2018-12-18T12:17:16.219Z,102118.35
2018-12-18T12:19:43.995Z,102124.89
2018-12-18T12:22:11.495Z,102118.84
2018-12-18T12:24:38.950Z,102127.06
2018-12-18T12:27:12.099Z,102128.09
2018-12-18T12:29:39.621Z,102130.98
2018-12-18T12:32:07.063Z,102125.06
2018-12-18T12:34:34.584Z,102120.05
2018-12-18T12:37:02.158Z,102115.08
2018-12-18T12:39:29.681Z,102104.96
2018-12-18T12:41:57.154Z,102111.35
2018-12-18T12:44:24.752Z,102115.13
2018-12-18T12:46:52.230Z,102111.97
2018-12-18T12:49:21.660Z,102120.80
2018-12-18T12:51:49.117Z,102120.39
2018-12-18T12:54:16.676Z,102127.84
2018-12-18T12:56:44.146Z,102133.54
2018-12-18T12:59:11.596Z,102130.76
2018-12-18T13:01:42.075Z,102133.09
2018-12-18T13:04:08.638Z,102129.14
2018-12-18T13:06:36.591Z,102109.58
2018-12-18T13:09:06.681Z,102108.03
2018-12-18T13:11:34.137Z,102109.52
2018-12-18T13:14:01.762Z,102116.12
2018-12-18T13:16:29.228Z,102116.18
2018-12-18T13:18:56.743Z,102119.50
2018-12-18T13:21:24.467Z,102123.03
2018-12-18T13:23:52.000Z,102117.32
2018-12-18T13:26:19.515Z,102114.83
2018-12-18T13:28:47.010Z,102120.27
2018-12-18T13:31:14.483Z,102110.19
2018-12-18T13:33:41.952Z,102107.27
2018-12-18T13:36:09.437Z,102115.35
2018-12-18T13:38:36.910Z,102126.84
2018-12-18T13:41:04.404Z,102128.26
2018-12-18T13:43:31.889Z,102119.98
2018-12-18T13:45:59.357Z,102113.93
2018-12-18T13:48:26.859Z,102119.02
2018-12-18T13:50:54.434Z,102117.59
2018-12-18T13:53:22.463Z,102106.78
2018-12-18T13:55:49.929Z,102116.09
2018-12-18T13:58:17.442Z,102120.36
2018-12-18T14:00:44.988Z,102114.27
2018-12-18T14:03:12.552Z,102114.66
2018-12-18T14:05:40.052Z,102123.69
2018-12-18T14:08:08.193Z,102122.66
2018-12-18T14:10:39.561Z,102119.78
2018-12-18T14:13:07.038Z,102113.29
2018-12-18T14:15:34.595Z,102112.30
2018-12-18T14:18:02.815Z,102112.63
2018-12-18T14:20:31.594Z,102110.81
2018-12-18T14:23:03.468Z,102120.17
2018-12-18T14:25:31.479Z,102112.95
2018-12-18T14:30:37.501Z,102110.11
2018-12-18T14:33:05.127Z,102106.67
2018-12-18T14:35:32.924Z,102104.22
2018-12-18T14:38:00.425Z,102106.19
2018-12-18T14:40:28.078Z,102105.22
2018-12-18T14:42:56.378Z,102103.31
2018-12-18T14:45:24.652Z,102102.27
2018-12-18T14:47:56.050Z,102098.55
2018-12-18T14:50:23.770Z,102107.34
2018-12-18T14:52:51.302Z,102098.12
2018-12-18T14:55:19.416Z,102097.20
2018-12-18T14:57:50.930Z,102098.09
2018-12-18T15:00:19.174Z,102092.02
2018-12-18T15:02:47.307Z,102098.77
2018-12-18T15:05:14.869Z,102087.77
2018-12-18T15:07:43.771Z,102083.42
2018-12-18T15:10:15.205Z,102083.07
2018-12-18T15:12:45.232Z,102088.59
2018-12-18T15:15:17.611Z,102089.62
2018-12-18T15:17:45.253Z,102089.98
2018-12-18T15:20:13.817Z,102091.80
2018-12-18T15:22:41.406Z,102084.52
2018-12-18T15:25:12.919Z,102085.27
2018-12-18T15:27:41.082Z,102073.31
2018-12-18T15:30:13.400Z,102082.91
2018-12-18T15:32:41.540Z,102083.31
2018-12-18T15:35:09.626Z,102086.30
2018-12-18T15:37:38.342Z,102085.13
2018-12-18T15:40:06.008Z,102085.84
2018-12-18T15:42:33.529Z,102090.52
2018-12-18T15:45:01.089Z,102090.47
2018-12-18T15:47:28.663Z,102089.71
2018-12-18T15:49:56.193Z,102099.76
2018-12-18T15:52:23.848Z,102105.63
2018-12-18T15:54:51.341Z,102102.69
2018-12-18T15:57:19.711Z,102109.14
2018-12-18T15:59:47.234Z,102112.90
2018-12-18T16:02:14.715Z,102110.75
2018-12-18T16:04:42.288Z,102108.43
2018-12-18T16:07:15.929Z,102108.16
2018-12-18T16:09:39.428Z,102112.41
2018-12-18T16:12:06.933Z,102111.84
2018-12-18T16:14:34.447Z,102110.22
2018-12-18T16:17:02.828Z,102108.80
2018-12-18T16:19:30.664Z,102115.99
2018-12-18T16:21:58.633Z,102110.98
2018-12-18T16:24:26.171Z,102110.50
2018-12-18T16:26:53.644Z,102111.03
2018-12-18T16:29:21.168Z,102113.47
2018-12-18T16:31:48.679Z,102115.96
2018-12-18T16:34:16.189Z,102111.35
2018-12-18T16:36:50.161Z,102103.26
2018-12-18T16:39:17.653Z,102105.69
2018-12-18T16:41:45.154Z,102106.20
2018-12-18T16:44:12.653Z,102096.19
2018-12-18T16:46:40.172Z,102096.57
2018-12-18T16:49:07.640Z,102104.44
2018-12-18T16:51:35.168Z,102110.23
2018-12-18T16:54:02.940Z,102113.70
2018-12-18T16:56:30.497Z,102118.56
2018-12-18T16:59:01.958Z,102123.31
2018-12-18T17:01:29.457Z,102123.84
2018-12-18T17:03:56.981Z,102118.05
2018-12-18T17:06:24.490Z,102120.77
2018-12-18T17:08:52.120Z,102119.59
2018-12-18T17:11:19.688Z,102129.63
2018-12-18T17:13:47.327Z,102122.17
2018-12-18T17:16:14.816Z,102121.14
2018-12-18T17:18:42.348Z,102118.45
2018-12-18T17:21:09.835Z,102111.00
2018-12-18T17:23:37.372Z,102105.58
2018-12-18T17:26:04.860Z,102100.84
2018-12-18T17:28:32.370Z,102104.08
2018-12-18T17:31:00.424Z,102103.41
2018-12-18T17:33:27.985Z,102110.63
2018-12-18T17:35:55.631Z,102103.16
2018-12-18T17:38:23.164Z,102102.38
2018-12-18T17:40:50.800Z,102104.42
2018-12-18T17:43:19.519Z,102100.06
2018-12-18T17:45:47.036Z,102104.67
2018-12-18T17:48:18.714Z,102109.80
2018-12-18T17:50:46.215Z,102102.20
2018-12-18T17:53:14.461Z,102102.10
2018-12-18T17:55:41.983Z,102095.44
2018-12-18T17:58:09.521Z,102091.44
2018-12-18T18:00:37.016Z,102100.57
2018-12-18T18:03:04.752Z,102095.68
2018-12-18T18:05:32.238Z,102101.21
2018-12-18T18:07:59.722Z,102098.50
2018-12-18T18:10:27.225Z,102097.72
2018-12-18T18:12:54.748Z,102099.78
2018-12-18T18:15:22.410Z,102101.32
2018-12-18T18:17:49.934Z,102103.39
2018-12-18T18:20:17.503Z,102095.69
2018-12-18T18:22:45.156Z,102095.89
2018-12-18T18:25:12.642Z,102100.28
2018-12-18T18:27:40.228Z,102098.10
2018-12-18T18:30:07.803Z,102098.20
2018-12-18T18:32:43.425Z,102102.31
2018-12-18T18:35:10.938Z,102102.31
2018-12-18T18:37:38.519Z,102087.39
2018-12-18T18:40:07.503Z,102083.55
2018-12-18T18:42:34.983Z,102087.78
2018-12-18T18:45:02.542Z,102091.23
2018-12-18T18:47:30.030Z,102085.36
2018-12-18T18:49:57.586Z,102083.79
2018-12-18T18:52:25.134Z,102081.50
2018-12-18T18:54:52.772Z,102078.63
2018-12-18T18:57:20.334Z,102079.91
2018-12-18T18:59:47.853Z,102074.24
2018-12-18T19:02:15.412Z,102075.02
2018-12-18T19:04:42.979Z,102078.08
2018-12-18T19:07:10.500Z,102077.34
2018-12-18T19:09:38.000Z,102075.03
2018-12-18T19:12:05.541Z,102083.21
2018-12-18T19:14:33.196Z,102080.11
2018-12-18T19:17:00.720Z,102080.87
2018-12-18T19:19:28.300Z,102077.92
2018-12-18T19:21:55.889Z,102078.30
2018-12-18T19:24:23.415Z,102073.81
2018-12-18T19:26:50.960Z,102069.97
2018-12-18T19:29:18.464Z,102062.75
2018-12-18T19:31:46.071Z,102061.38
2018-12-18T19:34:14.347Z,102060.20
2018-12-18T19:36:41.881Z,102067.48
2018-12-18T19:39:09.430Z,102051.44
2018-12-18T19:41:36.936Z,102056.67
2018-12-18T19:44:04.479Z,102060.02
2018-12-18T19:46:31.974Z,102059.63
2018-12-18T19:48:59.483Z,102065.66
2018-12-18T19:51:27.018Z,102061.95
2018-12-18T19:53:54.593Z,102062.05
2018-12-18T19:56:22.143Z,102053.38
2018-12-18T19:58:49.665Z,102052.33
2018-12-18T20:01:17.209Z,102050.41
2018-12-18T20:03:44.794Z,102050.27
2018-12-18T20:06:12.268Z,102043.29
2018-12-18T20:08:39.799Z,102039.49
2018-12-18T20:11:07.297Z,102035.88
2018-12-18T20:13:34.842Z,102036.53
2018-12-18T20:16:02.405Z,102029.08
2018-12-18T20:18:30.040Z,102036.48
2018-12-18T20:20:58.038Z,102037.08
2018-12-18T20:23:25.681Z,102030.16
2018-12-18T20:25:54.919Z,102037.56
2018-12-18T20:28:22.465Z,102034.08
2018-12-18T20:30:49.992Z,102037.31
2018-12-18T20:33:17.570Z,102037.48
2018-12-18T20:35:45.139Z,102033.33
2018-12-18T20:38:16.876Z,102027.79
2018-12-18T20:40:42.206Z,102014.69
2018-12-18T20:43:10.656Z,102013.41
2018-12-18T20:45:38.262Z,102010.70
2018-12-18T20:48:05.778Z,102012.61
2018-12-18T20:50:33.305Z,102008.44
2018-12-18T20:53:00.963Z,102004.94
2018-12-18T20:55:28.474Z,102003.42
2018-12-18T20:57:56.044Z,101995.95
2018-12-18T21:00:23.544Z,101993.61
2018-12-18T21:02:51.040Z,101991.77
2018-12-18T21:05:18.621Z,101989.48
2018-12-18T21:07:46.295Z,101993.98
2018-12-18T21:10:14.101Z,101997.52
2018-12-18T21:12:41.679Z,101990.08
2018-12-18T21:15:09.184Z,101991.83
2018-12-18T21:17:36.759Z,101988.69
2018-12-18T21:20:05.844Z,101993.57
2018-12-18T21:22:33.340Z,101984.61
2018-12-18T21:25:00.940Z,101972.66
2018-12-18T21:27:28.486Z,101973.53
2018-12-18T21:29:56.079Z,101965.39
2018-12-18T21:32:23.584Z,101964.05
2018-12-18T21:34:51.086Z,101953.77
2018-12-18T21:37:18.578Z,101954.44
2018-12-18T21:39:46.366Z,101947.63
2018-12-18T21:42:14.561Z,101949.58
2018-12-18T21:44:42.300Z,101949.58
2018-12-18T21:47:09.872Z,101948.59
2018-12-18T21:49:37.604Z,101941.78
2018-12-18T21:52:06.114Z,101948.63
2018-12-18T21:54:33.623Z,101948.01
2018-12-18T21:57:01.161Z,101949.28
2018-12-18T21:59:28.667Z,101956.73
2018-12-18T22:01:56.176Z,101956.19
2018-12-18T22:04:23.699Z,101950.54
2018-12-18T22:06:51.184Z,101952.56
2018-12-18T22:09:23.009Z,101955.69
2018-12-18T22:11:50.530Z,101958.70
2018-12-18T22:14:18.055Z,101957.38
2018-12-18T22:16:45.536Z,101955.69
2018-12-18T22:19:13.033Z,101945.30
2018-12-18T22:21:40.518Z,101945.30
2018-12-18T22:24:08.121Z,101945.87
2018-12-18T22:26:35.787Z,101938.33
2018-12-18T22:29:03.277Z,101938.45
2018-12-18T22:31:30.756Z,101936.61
2018-12-18T22:33:58.251Z,101939.05
2018-12-18T22:36:25.787Z,101924.84
2018-12-18T22:38:53.417Z,101919.94
2018-12-18T22:41:20.907Z,101918.06
2018-12-18T22:43:48.362Z,101915.89
2018-12-18T22:46:15.885Z,101910.74
2018-12-18T22:48:43.354Z,101909.70
2018-12-18T22:51:10.834Z,101900.09
2018-12-18T22:53:38.296Z,101899.14
2018-12-18T22:56:05.789Z,101890.53
2018-12-18T22:58:33.236Z,101885.13
2018-12-18T23:01:04.468Z,101893.09
2018-12-18T23:03:31.933Z,101891.19
2018-12-18T23:05:59.406Z,101881.55
2018-12-18T23:08:27.898Z,101882.80
2018-12-18T23:10:55.423Z,101874.53
2018-12-18T23:13:23.363Z,101867.22
2018-12-18T23:15:51.171Z,101864.12
2018-12-18T23:18:18.692Z,101864.51
2018-12-18T23:20:46.222Z,101857.84
2018-12-18T23:23:14.120Z,101848.59
2018-12-18T23:25:41.601Z,101844.48
2018-12-18T23:28:09.220Z,101842.41
2018-12-18T23:30:36.790Z,101838.30
2018-12-18T23:33:04.334Z,101837.55
2018-12-18T23:35:31.827Z,101839.76
2018-12-18T23:37:59.330Z,101830.45
2018-12-18T23:40:26.828Z,101833.16
2018-12-18T23:42:54.323Z,101827.83
2018-12-18T23:45:22.432Z,101825.89
2018-12-18T23:47:49.904Z,101821.67
2018-12-18T23:50:17.412Z,101819.06
2018-12-18T23:52:44.930Z,101817.63
2018-12-18T23:55:12.484Z,101817.27
2018-12-18T23:57:39.976Z,101811.27
